KCKN/CKN METAR and TAF weather

Enter ICAO airport designator
Station Type Date Time Source
KCKN METAR 2022/12/10 01:35 UTC NOAA

KCKN 100135Z 14004KT 7SM M02/M04 A3011 RMK AO2


Station Type Date Time Source
KCKN Decoded METAR 2022/12/10 01:35 UTC NOAA

Crookston Municipal Field, MN, United States (KCKN) 47-51N 096-37W
Dec 09, 2022 - 08:35 PM EST / 2022.12.10 0135 UTC
Wind: from the SE (140 degrees) at 5 MPH (4 KT):0
Visibility: 7 mile(s):0
Temperature: 28 F (-2 C)
Windchill: 23 F (-5 C):1
Dew Point: 24 F (-4 C)
Relative Humidity: 86%
Pressure (altimeter): 30.11 in. Hg (1019 hPa)
ob: KCKN 100135Z 14004KT 7SM M02/M04 A3011 RMK AO2
cycle: 1

Station Type Date Time Source
KCKN TAF UTC NOAA

Error!

Example: see airport list